KPQI/PQI METAR and TAF weather

Enter ICAO airport designator
Station Type Date Time Source
KPQI METAR 2018/12/18 18:56 UTC NOAA

KPQI 181856Z AUTO 32020G29KT 6SM -SN OVC030 M05/M09 A2957 RMK AO2 PK WND 33034/1846 SLP058 P0000 T10501094 FZRANO


Station Type Date Time Source
KPQI Decoded METAR 2018/12/18 18:56 UTC NOAA

Presque Isle, ME, United States (KPQI) 46-41N 068-03W 146M
Dec 18, 2018 - 01:56 PM EST / 2018.12.18 1856 UTC
Wind: from the NW (320 degrees) at 23 MPH (20 KT) gusting to 33 MPH (29 KT):0
Visibility: 6 mile(s):0
Sky conditions: overcast
Weather: light snow
Precipitation last hour: A trace
Temperature: 23.0 F (-5.0 C)
Windchill: 6 F (-14 C):1
Dew Point: 15.1 F (-9.4 C)
Relative Humidity: 71%
Pressure (altimeter): 29.57 in. Hg (1001 hPa)
ob: KPQI 181856Z AUTO 32020G29KT 6SM -SN OVC030 M05/M09 A2957 RMK AO2 PK WND 33034/1846 SLP058 P0000 T10501094 FZRANO
cycle: 19

Station Type Date Time Source
KPQI TAF 2018/12/18 18:36 UTC NOAA

TAF KPQI 181733Z 1818/1918 32016G27KT 5SM BLSN VCSH OVC025
FM182300 32015G25KT P6SM BKN030
FM190400 31013G22KT P6SM SCT030
FM191100 29007KT P6SM SCT090


Example: see airport list